sensor_id;sensor_type;location;lat;lon;timestamp;P1;durP1;ratioP1;P2;durP2;ratioP2
35891;SDS011;21993;42.672;23.296;2022-11-20T00:01:43;2.10;;;1.50;;
35891;SDS011;21993;42.672;23.296;2022-11-20T00:04:08;2.17;;;1.27;;
35891;SDS011;21993;42.672;23.296;2022-11-20T00:06:36;3.27;;;1.57;;
35891;SDS011;21993;42.672;23.296;2022-11-20T00:09:01;1.60;;;1.47;;
35891;SDS011;21993;42.672;23.296;2022-11-20T00:11:27;2.83;;;1.50;;
35891;SDS011;21993;42.672;23.296;2022-11-20T00:13:54;1.40;;;1.20;;
35891;SDS011;21993;42.672;23.296;2022-11-20T00:16:26;4.57;;;1.50;;
35891;SDS011;21993;42.672;23.296;2022-11-20T00:18:52;1.47;;;1.37;;
35891;SDS011;21993;42.672;23.296;2022-11-20T00:21:19;2.17;;;1.60;;
35891;SDS011;21993;42.672;23.296;2022-11-20T00:23:47;3.60;;;1.40;;
35891;SDS011;21993;42.672;23.296;2022-11-20T00:26:14;2.67;;;1.60;;
35891;SDS011;21993;42.672;23.296;2022-11-20T00:28:41;2.00;;;1.30;;
35891;SDS011;21993;42.672;23.296;2022-11-20T00:31:12;2.30;;;1.20;;
35891;SDS011;21993;42.672;23.296;2022-11-20T00:33:39;6.27;;;1.57;;
35891;SDS011;21993;42.672;23.296;2022-11-20T00:36:06;1.40;;;1.30;;
35891;SDS011;21993;42.672;23.296;2022-11-20T00:38:33;3.53;;;1.30;;
35891;SDS011;21993;42.672;23.296;2022-11-20T00:40:59;2.20;;;1.20;;
35891;SDS011;21993;42.672;23.296;2022-11-20T00:43:36;4.50;;;1.33;;
35891;SDS011;21993;42.672;23.296;2022-11-20T00:46:03;1.80;;;1.33;;
35891;SDS011;21993;42.672;23.296;2022-11-20T00:48:30;2.63;;;1.43;;
35891;SDS011;21993;42.672;23.296;2022-11-20T00:50:56;1.70;;;1.20;;
35891;SDS011;21993;42.672;23.296;2022-11-20T00:53:22;1.73;;;1.13;;
35891;SDS011;21993;42.672;23.296;2022-11-20T00:58:24;2.43;;;1.43;;
35891;SDS011;21993;42.672;23.296;2022-11-20T01:00:53;1.50;;;1.40;;
35891;SDS011;21993;42.672;23.296;2022-11-20T01:03:25;2.43;;;1.50;;
35891;SDS011;21993;42.672;23.296;2022-11-20T01:05:51;2.37;;;1.40;;
35891;SDS011;21993;42.672;23.296;2022-11-20T01:08:16;2.73;;;1.30;;
35891;SDS011;21993;42.672;23.296;2022-11-20T01:10:41;3.37;;;1.33;;
35891;SDS011;21993;42.672;23.296;2022-11-20T01:13:07;2.57;;;2.37;;
35891;SDS011;21993;42.672;23.296;2022-11-20T01:18:39;1.83;;;1.73;;
35891;SDS011;21993;42.672;23.296;2022-11-20T01:21:16;3.67;;;1.23;;
35891;SDS011;21993;42.672;23.296;2022-11-20T01:23:44;1.30;;;1.23;;
35891;SDS011;21993;42.672;23.296;2022-11-20T01:26:11;1.20;;;1.20;;
35891;SDS011;21993;42.672;23.296;2022-11-20T01:28:39;1.40;;;1.30;;
35891;SDS011;21993;42.672;23.296;2022-11-20T01:33:44;1.87;;;1.33;;
35891;SDS011;21993;42.672;23.296;2022-11-20T01:36:10;2.17;;;1.40;;
35891;SDS011;21993;42.672;23.296;2022-11-20T01:38:37;1.50;;;1.33;;
35891;SDS011;21993;42.672;23.296;2022-11-20T01:41:03;1.87;;;1.30;;
35891;SDS011;21993;42.672;23.296;2022-11-20T01:43:29;2.67;;;1.23;;
35891;SDS011;21993;42.672;23.296;2022-11-20T01:48:40;2.47;;;1.37;;
35891;SDS011;21993;42.672;23.296;2022-11-20T01:54:38;2.80;;;1.20;;
35891;SDS011;21993;42.672;23.296;2022-11-20T01:57:08;2.50;;;1.27;;
35891;SDS011;21993;42.672;23.296;2022-11-20T01:59:40;1.20;;;1.10;;
35891;SDS011;21993;42.672;23.296;2022-11-20T02:02:15;1.00;;;1.00;;
35891;SDS011;21993;42.672;23.296;2022-11-20T02:04:41;4.83;;;1.20;;
35891;SDS011;21993;42.672;23.296;2022-11-20T02:07:06;3.07;;;1.20;;
35891;SDS011;21993;42.672;23.296;2022-11-20T02:09:32;1.30;;;1.10;;
35891;SDS011;21993;42.672;23.296;2022-11-20T02:11:58;1.57;;;1.47;;
35891;SDS011;21993;42.672;23.296;2022-11-20T02:14:24;1.10;;;1.00;;
35891;SDS011;21993;42.672;23.296;2022-11-20T02:16:50;1.00;;;0.90;;
35891;SDS011;21993;42.672;23.296;2022-11-20T02:19:30;5.40;;;2.00;;
35891;SDS011;21993;42.672;23.296;2022-11-20T02:24:35;1.20;;;1.10;;
35891;SDS011;21993;42.672;23.296;2022-11-20T02:32:02;2.80;;;1.70;;
35891;SDS011;21993;42.672;23.296;2022-11-20T02:34:28;1.27;;;1.20;;
35891;SDS011;21993;42.672;23.296;2022-11-20T02:36:54;3.40;;;1.27;;
35891;SDS011;21993;42.672;23.296;2022-11-20T02:39:21;1.33;;;1.17;;
35891;SDS011;21993;42.672;23.296;2022-11-20T02:41:50;1.83;;;1.23;;
35891;SDS011;21993;42.672;23.296;2022-11-20T02:44:18;1.80;;;1.40;;
35891;SDS011;21993;42.672;23.296;2022-11-20T02:46:44;2.97;;;1.27;;
35891;SDS011;21993;42.672;23.296;2022-11-20T02:49:10;1.33;;;1.30;;
35891;SDS011;21993;42.672;23.296;2022-11-20T02:51:35;1.77;;;1.27;;
35891;SDS011;21993;42.672;23.296;2022-11-20T02:54:01;1.17;;;1.07;;
35891;SDS011;21993;42.672;23.296;2022-11-20T02:56:26;1.83;;;1.40;;
35891;SDS011;21993;42.672;23.296;2022-11-20T02:58:52;4.10;;;1.37;;
35891;SDS011;21993;42.672;23.296;2022-11-20T03:01:17;3.10;;;1.60;;
35891;SDS011;21993;42.672;23.296;2022-11-20T03:03:43;1.73;;;1.30;;
35891;SDS011;21993;42.672;23.296;2022-11-20T03:06:08;1.63;;;1.47;;
35891;SDS011;21993;42.672;23.296;2022-11-20T03:08:34;4.93;;;1.63;;
35891;SDS011;21993;42.672;23.296;2022-11-20T03:11:03;1.63;;;1.50;;
35891;SDS011;21993;42.672;23.296;2022-11-20T03:13:30;1.50;;;1.30;;
35891;SDS011;21993;42.672;23.296;2022-11-20T03:15:56;3.00;;;1.60;;
35891;SDS011;21993;42.672;23.296;2022-11-20T03:18:21;1.97;;;1.57;;
35891;SDS011;21993;42.672;23.296;2022-11-20T03:20:47;1.87;;;1.50;;
35891;SDS011;21993;42.672;23.296;2022-11-20T03:23:12;1.70;;;1.53;;
35891;SDS011;21993;42.672;23.296;2022-11-20T03:25:38;1.30;;;1.10;;
35891;SDS011;21993;42.672;23.296;2022-11-20T03:28:03;3.67;;;1.60;;
35891;SDS011;21993;42.672;23.296;2022-11-20T03:30:29;1.63;;;1.27;;
35891;SDS011;21993;42.672;23.296;2022-11-20T03:32:54;1.93;;;1.30;;
35891;SDS011;21993;42.672;23.296;2022-11-20T03:35:20;3.10;;;1.60;;
35891;SDS011;21993;42.672;23.296;2022-11-20T03:37:45;2.70;;;1.40;;
35891;SDS011;21993;42.672;23.296;2022-11-20T03:40:11;4.20;;;1.50;;
35891;SDS011;21993;42.672;23.296;2022-11-20T03:42:37;2.17;;;1.40;;
35891;SDS011;21993;42.672;23.296;2022-11-20T03:45:15;1.43;;;1.30;;
35891;SDS011;21993;42.672;23.296;2022-11-20T03:47:42;1.33;;;1.23;;
35891;SDS011;21993;42.672;23.296;2022-11-20T03:50:08;2.00;;;1.40;;
35891;SDS011;21993;42.672;23.296;2022-11-20T03:52:35;2.40;;;1.20;;
35891;SDS011;21993;42.672;23.296;2022-11-20T03:55:00;3.00;;;1.57;;
35891;SDS011;21993;42.672;23.296;2022-11-20T03:57:25;2.47;;;1.57;;
35891;SDS011;21993;42.672;23.296;2022-11-20T03:59:51;1.53;;;1.23;;
35891;SDS011;21993;42.672;23.296;2022-11-20T04:02:16;2.17;;;1.30;;
35891;SDS011;21993;42.672;23.296;2022-11-20T04:04:42;1.80;;;1.53;;
35891;SDS011;21993;42.672;23.296;2022-11-20T04:07:07;2.77;;;1.40;;
35891;SDS011;21993;42.672;23.296;2022-11-20T04:09:33;3.27;;;1.20;;
35891;SDS011;21993;42.672;23.296;2022-11-20T04:11:58;1.60;;;1.50;;
35891;SDS011;21993;42.672;23.296;2022-11-20T04:14:24;1.30;;;1.20;;
35891;SDS011;21993;42.672;23.296;2022-11-20T04:16:49;2.73;;;1.30;;
35891;SDS011;21993;42.672;23.296;2022-11-20T04:19:15;1.30;;;1.20;;
35891;SDS011;21993;42.672;23.296;2022-11-20T04:21:41;1.67;;;1.50;;
35891;SDS011;21993;42.672;23.296;2022-11-20T04:24:08;4.60;;;1.30;;
35891;SDS011;21993;42.672;23.296;2022-11-20T04:26:35;2.30;;;1.20;;
35891;SDS011;21993;42.672;23.296;2022-11-20T04:29:01;2.57;;;1.53;;
35891;SDS011;21993;42.672;23.296;2022-11-20T04:31:30;0.97;;;0.90;;
35891;SDS011;21993;42.672;23.296;2022-11-20T04:34:02;3.97;;;1.23;;
35891;SDS011;21993;42.672;23.296;2022-11-20T04:36:29;1.47;;;1.10;;
35891;SDS011;21993;42.672;23.296;2022-11-20T04:38:56;1.33;;;1.20;;
35891;SDS011;21993;42.672;23.296;2022-11-20T04:41:30;1.23;;;1.20;;
35891;SDS011;21993;42.672;23.296;2022-11-20T04:44:00;2.27;;;1.03;;
35891;SDS011;21993;42.672;23.296;2022-11-20T04:46:29;2.73;;;1.30;;
35891;SDS011;21993;42.672;23.296;2022-11-20T04:49:02;1.63;;;1.20;;
35891;SDS011;21993;42.672;23.296;2022-11-20T04:51:28;1.63;;;1.20;;
35891;SDS011;21993;42.672;23.296;2022-11-20T04:53:53;3.73;;;1.17;;
35891;SDS011;21993;42.672;23.296;2022-11-20T04:56:19;1.67;;;1.57;;
35891;SDS011;21993;42.672;23.296;2022-11-20T04:58:45;3.17;;;1.43;;
35891;SDS011;21993;42.672;23.296;2022-11-20T05:03:46;8.07;;;1.27;;
35891;SDS011;21993;42.672;23.296;2022-11-20T05:06:12;4.17;;;1.63;;
35891;SDS011;21993;42.672;23.296;2022-11-20T05:08:39;1.87;;;1.20;;
35891;SDS011;21993;42.672;23.296;2022-11-20T05:11:09;1.90;;;0.90;;
35891;SDS011;21993;42.672;23.296;2022-11-20T05:13:37;2.47;;;1.23;;
35891;SDS011;21993;42.672;23.296;2022-11-20T05:16:06;1.30;;;1.20;;
35891;SDS011;21993;42.672;23.296;2022-11-20T05:18:43;1.40;;;1.10;;
35891;SDS011;21993;42.672;23.296;2022-11-20T05:21:08;1.37;;;1.00;;
35891;SDS011;21993;42.672;23.296;2022-11-20T05:23:35;2.20;;;1.00;;
35891;SDS011;21993;42.672;23.296;2022-11-20T05:26:01;2.33;;;1.27;;
35891;SDS011;21993;42.672;23.296;2022-11-20T05:28:27;2.20;;;1.30;;
35891;SDS011;21993;42.672;23.296;2022-11-20T05:30:53;1.73;;;1.13;;
35891;SDS011;21993;42.672;23.296;2022-11-20T05:33:19;1.30;;;1.20;;
35891;SDS011;21993;42.672;23.296;2022-11-20T05:35:45;1.33;;;1.23;;
35891;SDS011;21993;42.672;23.296;2022-11-20T05:38:10;3.23;;;1.20;;
35891;SDS011;21993;42.672;23.296;2022-11-20T05:40:36;4.30;;;1.30;;
35891;SDS011;21993;42.672;23.296;2022-11-20T05:43:02;4.43;;;1.40;;
35891;SDS011;21993;42.672;23.296;2022-11-20T05:45:28;3.47;;;1.30;;
35891;SDS011;21993;42.672;23.296;2022-11-20T05:47:53;4.17;;;1.37;;
35891;SDS011;21993;42.672;23.296;2022-11-20T05:50:22;1.40;;;1.30;;
35891;SDS011;21993;42.672;23.296;2022-11-20T05:52:47;1.97;;;1.80;;
35891;SDS011;21993;42.672;23.296;2022-11-20T05:55:13;1.63;;;1.30;;
35891;SDS011;21993;42.672;23.296;2022-11-20T05:57:38;5.10;;;1.43;;
35891;SDS011;21993;42.672;23.296;2022-11-20T06:00:04;5.37;;;1.23;;
35891;SDS011;21993;42.672;23.296;2022-11-20T06:02:29;2.13;;;1.40;;
35891;SDS011;21993;42.672;23.296;2022-11-20T06:04:55;1.43;;;1.33;;
35891;SDS011;21993;42.672;23.296;2022-11-20T06:07:20;2.33;;;1.80;;
35891;SDS011;21993;42.672;23.296;2022-11-20T06:09:46;3.47;;;1.30;;
35891;SDS011;21993;42.672;23.296;2022-11-20T06:12:11;2.97;;;1.20;;
35891;SDS011;21993;42.672;23.296;2022-11-20T06:14:36;3.73;;;1.30;;
35891;SDS011;21993;42.672;23.296;2022-11-20T06:17:02;4.23;;;1.47;;
35891;SDS011;21993;42.672;23.296;2022-11-20T06:19:27;3.07;;;1.40;;
35891;SDS011;21993;42.672;23.296;2022-11-20T06:21:52;1.37;;;1.27;;
35891;SDS011;21993;42.672;23.296;2022-11-20T06:24:18;3.30;;;1.40;;
35891;SDS011;21993;42.672;23.296;2022-11-20T06:26:43;1.73;;;1.40;;
35891;SDS011;21993;42.672;23.296;2022-11-20T06:29:09;2.83;;;1.77;;
35891;SDS011;21993;42.672;23.296;2022-11-20T06:31:35;6.10;;;2.00;;
35891;SDS011;21993;42.672;23.296;2022-11-20T06:34:03;2.00;;;1.40;;
35891;SDS011;21993;42.672;23.296;2022-11-20T06:36:30;3.70;;;1.67;;
35891;SDS011;21993;42.672;23.296;2022-11-20T06:38:56;2.73;;;1.73;;
35891;SDS011;21993;42.672;23.296;2022-11-20T06:41:21;2.23;;;1.50;;
35891;SDS011;21993;42.672;23.296;2022-11-20T06:43:47;5.57;;;1.37;;
35891;SDS011;21993;42.672;23.296;2022-11-20T06:46:13;3.67;;;1.37;;
35891;SDS011;21993;42.672;23.296;2022-11-20T06:48:42;3.23;;;1.40;;
35891;SDS011;21993;42.672;23.296;2022-11-20T06:51:07;1.60;;;1.30;;
35891;SDS011;21993;42.672;23.296;2022-11-20T06:53:33;2.37;;;1.33;;
35891;SDS011;21993;42.672;23.296;2022-11-20T06:55:59;3.53;;;1.50;;
35891;SDS011;21993;42.672;23.296;2022-11-20T06:58:28;4.83;;;1.40;;
35891;SDS011;21993;42.672;23.296;2022-11-20T07:00:59;0.97;;;0.97;;
35891;SDS011;21993;42.672;23.296;2022-11-20T07:03:29;1.77;;;1.20;;
35891;SDS011;21993;42.672;23.296;2022-11-20T07:05:55;1.20;;;1.10;;
35891;SDS011;21993;42.672;23.296;2022-11-20T07:08:21;3.63;;;2.00;;
35891;SDS011;21993;42.672;23.296;2022-11-20T07:10:47;1.70;;;1.60;;
35891;SDS011;21993;42.672;23.296;2022-11-20T07:13:12;3.20;;;1.43;;
35891;SDS011;21993;42.672;23.296;2022-11-20T07:15:37;3.33;;;1.23;;
35891;SDS011;21993;42.672;23.296;2022-11-20T07:18:03;1.80;;;1.50;;
35891;SDS011;21993;42.672;23.296;2022-11-20T07:20:28;3.20;;;1.37;;
35891;SDS011;21993;42.672;23.296;2022-11-20T07:22:57;3.40;;;1.30;;
35891;SDS011;21993;42.672;23.296;2022-11-20T07:25:23;2.07;;;1.20;;
35891;SDS011;21993;42.672;23.296;2022-11-20T07:27:50;2.50;;;1.50;;
35891;SDS011;21993;42.672;23.296;2022-11-20T07:30:16;3.00;;;1.60;;
35891;SDS011;21993;42.672;23.296;2022-11-20T07:32:41;3.10;;;1.67;;
35891;SDS011;21993;42.672;23.296;2022-11-20T07:35:07;3.30;;;1.40;;
35891;SDS011;21993;42.672;23.296;2022-11-20T07:37:36;7.23;;;3.03;;
35891;SDS011;21993;42.672;23.296;2022-11-20T07:40:01;1.60;;;1.20;;
35891;SDS011;21993;42.672;23.296;2022-11-20T07:42:27;2.10;;;1.73;;
35891;SDS011;21993;42.672;23.296;2022-11-20T07:44:52;3.40;;;1.40;;
35891;SDS011;21993;42.672;23.296;2022-11-20T07:47:18;3.67;;;1.37;;
35891;SDS011;21993;42.672;23.296;2022-11-20T07:49:43;5.17;;;1.90;;
35891;SDS011;21993;42.672;23.296;2022-11-20T07:52:08;10.20;;;1.87;;
35891;SDS011;21993;42.672;23.296;2022-11-20T07:54:34;2.97;;;1.50;;
35891;SDS011;21993;42.672;23.296;2022-11-20T07:56:59;4.07;;;2.00;;
35891;SDS011;21993;42.672;23.296;2022-11-20T07:59:24;2.67;;;1.70;;
35891;SDS011;21993;42.672;23.296;2022-11-20T08:01:50;1.50;;;1.40;;
35891;SDS011;21993;42.672;23.296;2022-11-20T08:04:15;2.13;;;1.57;;
35891;SDS011;21993;42.672;23.296;2022-11-20T08:06:41;3.77;;;2.10;;
35891;SDS011;21993;42.672;23.296;2022-11-20T08:09:06;4.43;;;2.30;;
35891;SDS011;21993;42.672;23.296;2022-11-20T08:11:32;5.97;;;1.80;;
35891;SDS011;21993;42.672;23.296;2022-11-20T08:14:16;5.37;;;2.13;;
35891;SDS011;21993;42.672;23.296;2022-11-20T08:16:45;2.57;;;1.97;;
35891;SDS011;21993;42.672;23.296;2022-11-20T08:19:15;1.87;;;1.63;;
35891;SDS011;21993;42.672;23.296;2022-11-20T08:21:44;2.33;;;1.87;;
35891;SDS011;21993;42.672;23.296;2022-11-20T08:24:10;6.23;;;2.30;;
35891;SDS011;21993;42.672;23.296;2022-11-20T08:26:36;7.27;;;2.30;;
35891;SDS011;21993;42.672;23.296;2022-11-20T08:29:02;10.27;;;2.20;;
35891;SDS011;21993;42.672;23.296;2022-11-20T08:31:27;3.13;;;1.80;;
35891;SDS011;21993;42.672;23.296;2022-11-20T08:33:53;3.80;;;2.10;;
35891;SDS011;21993;42.672;23.296;2022-11-20T08:36:19;5.43;;;1.50;;
35891;SDS011;21993;42.672;23.296;2022-11-20T08:38:46;4.90;;;1.90;;
35891;SDS011;21993;42.672;23.296;2022-11-20T08:41:16;2.90;;;1.40;;
35891;SDS011;21993;42.672;23.296;2022-11-20T08:43:48;11.53;;;2.00;;
35891;SDS011;21993;42.672;23.296;2022-11-20T08:46:20;3.30;;;1.50;;
35891;SDS011;21993;42.672;23.296;2022-11-20T08:48:46;5.00;;;1.80;;
35891;SDS011;21993;42.672;23.296;2022-11-20T08:51:12;5.93;;;2.33;;
35891;SDS011;21993;42.672;23.296;2022-11-20T08:53:39;4.47;;;1.50;;
35891;SDS011;21993;42.672;23.296;2022-11-20T08:56:05;5.33;;;2.00;;
35891;SDS011;21993;42.672;23.296;2022-11-20T08:58:30;3.97;;;2.03;;
35891;SDS011;21993;42.672;23.296;2022-11-20T09:00:56;5.93;;;2.60;;
35891;SDS011;21993;42.672;23.296;2022-11-20T09:03:22;6.97;;;3.10;;
35891;SDS011;21993;42.672;23.296;2022-11-20T09:05:47;9.87;;;3.13;;
35891;SDS011;21993;42.672;23.296;2022-11-20T09:08:13;6.57;;;2.90;;
35891;SDS011;21993;42.672;23.296;2022-11-20T09:10:38;6.83;;;2.73;;
35891;SDS011;21993;42.672;23.296;2022-11-20T09:13:06;7.40;;;3.10;;
35891;SDS011;21993;42.672;23.296;2022-11-20T09:15:32;4.37;;;2.53;;
35891;SDS011;21993;42.672;23.296;2022-11-20T09:17:59;3.93;;;2.87;;
35891;SDS011;21993;42.672;23.296;2022-11-20T09:20:27;6.13;;;2.93;;
35891;SDS011;21993;42.672;23.296;2022-11-20T09:22:54;6.07;;;2.77;;
35891;SDS011;21993;42.672;23.296;2022-11-20T09:25:20;7.13;;;2.73;;
35891;SDS011;21993;42.672;23.296;2022-11-20T09:27:45;3.03;;;1.67;;
35891;SDS011;21993;42.672;23.296;2022-11-20T09:30:11;1.50;;;1.40;;
35891;SDS011;21993;42.672;23.296;2022-11-20T09:32:40;4.07;;;1.50;;
35891;SDS011;21993;42.672;23.296;2022-11-20T09:35:06;2.23;;;1.53;;
35891;SDS011;21993;42.672;23.296;2022-11-20T09:37:32;3.77;;;1.83;;
35891;SDS011;21993;42.672;23.296;2022-11-20T09:39:58;2.23;;;1.63;;
35891;SDS011;21993;42.672;23.296;2022-11-20T09:48:17;3.07;;;1.63;;
35891;SDS011;21993;42.672;23.296;2022-11-20T09:50:50;3.90;;;2.10;;
35891;SDS011;21993;42.672;23.296;2022-11-20T09:53:32;3.60;;;2.03;;
35891;SDS011;21993;42.672;23.296;2022-11-20T09:56:08;7.87;;;2.60;;
35891;SDS011;21993;42.672;23.296;2022-11-20T09:58:45;5.03;;;2.30;;
35891;SDS011;21993;42.672;23.296;2022-11-20T10:01:15;3.37;;;1.87;;
35891;SDS011;21993;42.672;23.296;2022-11-20T10:03:45;2.43;;;1.77;;
35891;SDS011;21993;42.672;23.296;2022-11-20T10:06:20;4.97;;;2.00;;
35891;SDS011;21993;42.672;23.296;2022-11-20T10:19:40;8.00;;;3.20;;
35891;SDS011;21993;42.672;23.296;2022-11-20T10:30:14;5.37;;;3.17;;
35891;SDS011;21993;42.672;23.296;2022-11-20T10:35:32;6.80;;;2.60;;
35891;SDS011;21993;42.672;23.296;2022-11-20T10:38:07;6.00;;;2.97;;
35891;SDS011;21993;42.672;23.296;2022-11-20T10:40:43;8.57;;;2.83;;
35891;SDS011;21993;42.672;23.296;2022-11-20T10:43:16;7.43;;;3.23;;
35891;SDS011;21993;42.672;23.296;2022-11-20T10:48:18;4.23;;;2.97;;
35891;SDS011;21993;42.672;23.296;2022-11-20T10:54:04;8.87;;;3.67;;
35891;SDS011;21993;42.672;23.296;2022-11-20T10:56:53;9.03;;;3.43;;
35891;SDS011;21993;42.672;23.296;2022-11-20T10:59:28;12.63;;;3.73;;
35891;SDS011;21993;42.672;23.296;2022-11-20T11:02:22;9.40;;;3.87;;
35891;SDS011;21993;42.672;23.296;2022-11-20T11:04:50;9.70;;;3.70;;
35891;SDS011;21993;42.672;23.296;2022-11-20T11:07:23;9.83;;;4.30;;
35891;SDS011;21993;42.672;23.296;2022-11-20T11:09:53;5.10;;;2.20;;
35891;SDS011;21993;42.672;23.296;2022-11-20T11:12:21;5.40;;;2.50;;
35891;SDS011;21993;42.672;23.296;2022-11-20T11:14:50;4.07;;;2.23;;
35891;SDS011;21993;42.672;23.296;2022-11-20T11:17:26;2.10;;;1.50;;
35891;SDS011;21993;42.672;23.296;2022-11-20T11:20:35;2.83;;;1.47;;
35891;SDS011;21993;42.672;23.296;2022-11-20T11:22:53;3.43;;;1.30;;
35891;SDS011;21993;42.672;23.296;2022-11-20T11:25:21;1.87;;;1.33;;
35891;SDS011;21993;42.672;23.296;2022-11-20T11:28:20;2.47;;;1.30;;
35891;SDS011;21993;42.672;23.296;2022-11-20T11:30:47;2.93;;;1.10;;
35891;SDS011;21993;42.672;23.296;2022-11-20T11:33:23;1.67;;;1.47;;
35891;SDS011;21993;42.672;23.296;2022-11-20T11:35:57;2.20;;;1.07;;
35891;SDS011;21993;42.672;23.296;2022-11-20T11:41:00;1.50;;;1.10;;
35891;SDS011;21993;42.672;23.296;2022-11-20T11:43:31;2.97;;;1.30;;
35891;SDS011;21993;42.672;23.296;2022-11-20T11:49:08;3.87;;;1.60;;
35891;SDS011;21993;42.672;23.296;2022-11-20T11:52:00;2.57;;;1.20;;
35891;SDS011;21993;42.672;23.296;2022-11-20T11:56:52;4.37;;;1.30;;
35891;SDS011;21993;42.672;23.296;2022-11-20T11:59:25;3.23;;;1.70;;
35891;SDS011;21993;42.672;23.296;2022-11-20T12:01:59;2.30;;;1.20;;
35891;SDS011;21993;42.672;23.296;2022-11-20T12:07:09;2.30;;;1.47;;
35891;SDS011;21993;42.672;23.296;2022-11-20T12:09:41;3.90;;;1.37;;
35891;SDS011;21993;42.672;23.296;2022-11-20T12:12:22;2.93;;;1.47;;
35891;SDS011;21993;42.672;23.296;2022-11-20T12:14:52;4.63;;;1.87;;
35891;SDS011;21993;42.672;23.296;2022-11-20T12:17:20;4.77;;;1.40;;
35891;SDS011;21993;42.672;23.296;2022-11-20T12:19:45;2.23;;;1.20;;
35891;SDS011;21993;42.672;23.296;2022-11-20T12:25:20;5.57;;;1.23;;
35891;SDS011;21993;42.672;23.296;2022-11-20T12:27:52;4.97;;;1.53;;
35891;SDS011;21993;42.672;23.296;2022-11-20T12:30:28;5.70;;;1.50;;
35891;SDS011;21993;42.672;23.296;2022-11-20T12:33:17;3.47;;;1.60;;
35891;SDS011;21993;42.672;23.296;2022-11-20T12:49:52;3.97;;;1.53;;
35891;SDS011;21993;42.672;23.296;2022-11-20T12:53:11;2.50;;;1.40;;
35891;SDS011;21993;42.672;23.296;2022-11-20T12:55:21;4.93;;;1.80;;
35891;SDS011;21993;42.672;23.296;2022-11-20T13:00:56;4.37;;;1.77;;
35891;SDS011;21993;42.672;23.296;2022-11-20T13:06:17;2.73;;;2.47;;
35891;SDS011;21993;42.672;23.296;2022-11-20T13:08:53;4.43;;;2.60;;
35891;SDS011;21993;42.672;23.296;2022-11-20T13:19:52;4.63;;;2.70;;
35891;SDS011;21993;42.672;23.296;2022-11-20T13:22:25;6.07;;;3.00;;
35891;SDS011;21993;42.672;23.296;2022-11-20T13:25:21;5.13;;;3.00;;
35891;SDS011;21993;42.672;23.296;2022-11-20T13:27:51;7.87;;;3.97;;
35891;SDS011;21993;42.672;23.296;2022-11-20T13:30:21;3.93;;;2.63;;
35891;SDS011;21993;42.672;23.296;2022-11-20T13:35:55;6.97;;;3.70;;
35891;SDS011;21993;42.672;23.296;2022-11-20T13:38:23;8.70;;;3.77;;
35891;SDS011;21993;42.672;23.296;2022-11-20T13:40:56;7.63;;;4.23;;
35891;SDS011;21993;42.672;23.296;2022-11-20T13:43:27;6.37;;;4.10;;
35891;SDS011;21993;42.672;23.296;2022-11-20T13:46:05;8.30;;;5.03;;
35891;SDS011;21993;42.672;23.296;2022-11-20T13:48:45;5.23;;;3.77;;
35891;SDS011;21993;42.672;23.296;2022-11-20T13:51:16;11.00;;;4.47;;
35891;SDS011;21993;42.672;23.296;2022-11-20T13:54:19;11.87;;;4.23;;
35891;SDS011;21993;42.672;23.296;2022-11-20T13:59:49;4.93;;;3.57;;
35891;SDS011;21993;42.672;23.296;2022-11-20T14:02:20;6.83;;;3.57;;
35891;SDS011;21993;42.672;23.296;2022-11-20T14:04:52;8.20;;;3.70;;
35891;SDS011;21993;42.672;23.296;2022-11-20T14:07:21;6.93;;;3.50;;
35891;SDS011;21993;42.672;23.296;2022-11-20T14:09:51;7.27;;;3.93;;
35891;SDS011;21993;42.672;23.296;2022-11-20T14:12:19;6.87;;;4.00;;
35891;SDS011;21993;42.672;23.296;2022-11-20T14:14:49;10.60;;;4.87;;
35891;SDS011;21993;42.672;23.296;2022-11-20T14:17:18;9.17;;;4.93;;
35891;SDS011;21993;42.672;23.296;2022-11-20T14:19:45;8.60;;;4.53;;
35891;SDS011;21993;42.672;23.296;2022-11-20T14:24:44;8.13;;;3.83;;
35891;SDS011;21993;42.672;23.296;2022-11-20T14:27:20;9.33;;;3.47;;
35891;SDS011;21993;42.672;23.296;2022-11-20T14:29:47;5.10;;;2.80;;
35891;SDS011;21993;42.672;23.296;2022-11-20T14:32:18;8.97;;;3.33;;
35891;SDS011;21993;42.672;23.296;2022-11-20T14:34:47;4.57;;;2.60;;
35891;SDS011;21993;42.672;23.296;2022-11-20T14:37:21;4.43;;;3.07;;
35891;SDS011;21993;42.672;23.296;2022-11-20T14:39:58;5.90;;;3.43;;
35891;SDS011;21993;42.672;23.296;2022-11-20T14:42:27;6.80;;;3.30;;
35891;SDS011;21993;42.672;23.296;2022-11-20T14:44:57;6.00;;;3.67;;
35891;SDS011;21993;42.672;23.296;2022-11-20T14:47:25;6.20;;;3.30;;
35891;SDS011;21993;42.672;23.296;2022-11-20T14:49:53;5.13;;;3.30;;
35891;SDS011;21993;42.672;23.296;2022-11-20T14:52:21;4.70;;;3.47;;
35891;SDS011;21993;42.672;23.296;2022-11-20T14:54:52;4.77;;;2.90;;
35891;SDS011;21993;42.672;23.296;2022-11-20T14:57:26;4.17;;;2.87;;
35891;SDS011;21993;42.672;23.296;2022-11-20T15:02:47;4.33;;;2.70;;
35891;SDS011;21993;42.672;23.296;2022-11-20T15:05:13;7.90;;;3.77;;
35891;SDS011;21993;42.672;23.296;2022-11-20T15:07:41;3.77;;;2.60;;
35891;SDS011;21993;42.672;23.296;2022-11-20T15:15:23;4.20;;;2.67;;
35891;SDS011;21993;42.672;23.296;2022-11-20T15:17:55;2.93;;;1.97;;
35891;SDS011;21993;42.672;23.296;2022-11-20T15:20:21;2.37;;;1.77;;
35891;SDS011;21993;42.672;23.296;2022-11-20T15:22:51;4.17;;;2.10;;
35891;SDS011;21993;42.672;23.296;2022-11-20T15:25:17;3.77;;;2.00;;
35891;SDS011;21993;42.672;23.296;2022-11-20T15:27:43;2.10;;;1.80;;
35891;SDS011;21993;42.672;23.296;2022-11-20T15:30:17;3.13;;;2.57;;
35891;SDS011;21993;42.672;23.296;2022-11-20T15:32:44;4.00;;;2.20;;
35891;SDS011;21993;42.672;23.296;2022-11-20T15:35:11;4.27;;;2.33;;
35891;SDS011;21993;42.672;23.296;2022-11-20T15:37:37;3.40;;;2.20;;
35891;SDS011;21993;42.672;23.296;2022-11-20T15:40:03;2.73;;;2.00;;
35891;SDS011;21993;42.672;23.296;2022-11-20T15:42:30;4.90;;;3.43;;
35891;SDS011;21993;42.672;23.296;2022-11-20T15:44:55;6.27;;;3.00;;
35891;SDS011;21993;42.672;23.296;2022-11-20T15:47:21;5.37;;;3.00;;
35891;SDS011;21993;42.672;23.296;2022-11-20T15:49:52;7.13;;;2.60;;
35891;SDS011;21993;42.672;23.296;2022-11-20T15:52:17;4.80;;;2.27;;
35891;SDS011;21993;42.672;23.296;2022-11-20T15:54:43;5.77;;;2.63;;
35891;SDS011;21993;42.672;23.296;2022-11-20T15:57:08;6.37;;;3.43;;
35891;SDS011;21993;42.672;23.296;2022-11-20T15:59:34;5.70;;;3.17;;
35891;SDS011;21993;42.672;23.296;2022-11-20T16:02:02;6.40;;;3.20;;
35891;SDS011;21993;42.672;23.296;2022-11-20T16:04:27;7.37;;;3.53;;
35891;SDS011;21993;42.672;23.296;2022-11-20T16:06:53;5.03;;;3.07;;
35891;SDS011;21993;42.672;23.296;2022-11-20T16:09:18;7.03;;;3.67;;
35891;SDS011;21993;42.672;23.296;2022-11-20T16:11:43;6.33;;;3.70;;
35891;SDS011;21993;42.672;23.296;2022-11-20T16:14:10;6.53;;;3.37;;
35891;SDS011;21993;42.672;23.296;2022-11-20T16:16:54;5.63;;;3.43;;
35891;SDS011;21993;42.672;23.296;2022-11-20T16:19:20;8.40;;;3.43;;
35891;SDS011;21993;42.672;23.296;2022-11-20T16:21:45;11.23;;;6.80;;
35891;SDS011;21993;42.672;23.296;2022-11-20T16:24:12;6.77;;;4.40;;
35891;SDS011;21993;42.672;23.296;2022-11-20T16:26:39;6.70;;;3.73;;
35891;SDS011;21993;42.672;23.296;2022-11-20T16:29:05;7.90;;;4.00;;
35891;SDS011;21993;42.672;23.296;2022-11-20T16:31:31;4.87;;;3.27;;
35891;SDS011;21993;42.672;23.296;2022-11-20T16:33:58;4.03;;;2.83;;
35891;SDS011;21993;42.672;23.296;2022-11-20T16:36:26;4.57;;;2.53;;
35891;SDS011;21993;42.672;23.296;2022-11-20T16:38:54;6.10;;;3.60;;